LGKV/KVA METAR and TAF weather

Enter ICAO airport designator
Station Type Date Time Source
LGKV METAR 2019/06/18 04:20 UTC NOAA

LGKV 180420Z 35003KT 9999 FEW030 SCT080 23/20 Q1012


Station Type Date Time Source
LGKV Decoded METAR 2019/06/18 04:20 UTC NOAA

Chrysoupoli Airport , Greece (LGKV) 40-59N 024-36E 5M
Jun 18, 2019 - 12:20 AM EDT / 2019.06.18 0420 UTC
Wind: from the N (350 degrees) at 3 MPH (3 KT):0
Visibility: greater than 7 mile(s):0
Sky conditions: partly cloudy
Temperature: 73 F (23 C)
Dew Point: 68 F (20 C)
Relative Humidity: 83%
Pressure (altimeter): 29.88 in. Hg (1012 hPa)
ob: LGKV 180420Z 35003KT 9999 FEW030 SCT080 23/20 Q1012
cycle: 4

Station Type Date Time Source
LGKV TAF 2019/06/17 19:47 UTC NOAA

TAF
AMD LGKV 171925Z 1719/1818 22010KT 9999 FEW025 SCT080
TEMPO 1719/1724 VRB15G25KT 2000 TSRA FEW018CB BKN025 BKN080
BECMG 1810/1812 22010KT FEW025 SCT080 PROB30
TEMPO 1812/1816 7000 SHRA FEW020TCU SCT025 BKN080

Example: see airport list